TKPK Airport Information

Runway Information
Runway 07 Length 7602 ft width 148 ft
Elevation 168 ft Threshold 200 ft Heading 57
Runway 25 Length 7602 ft Width 148 ft
Elevation 161 ft Threshold 0 ft Heading 237
Airport Frequencies
Type APP Name APP Frequency 119.6 MHZ
Type GND Name GND Frequency 121.9 MHZ
Type TWR Name TWR Frequency 118.3 MHZ
Airport Navaids
Type NDB-DME Name Bradshaw Frequency 325 KHZ
Airport Weather Information & NOTAM
ADDS - METARS form results

(0147 UTC 19 January 2018)
 
METAR text: TKPK 190100Z 09007KT 9999 FEW018 26/23 Q1017
Conditions at: TKPK (GOLDEN ROCKS/NEV, KN) observed 0100 UTC 19 January 2018
Temperature: 26.0°C (79°F)
Dewpoint: 23.0°C (73°F) [RH = 84%]
Pressure (altimeter): 30.03 inches Hg (1017.0 mb)
Winds: from the E (90 degrees) at 8 MPH (7 knots; 3.6 m/s)
Visibility: 6 or more miles (10+ km)
Ceiling: at least 12,000 feet AGL
Clouds: few clouds at 1800 feet AGL
Weather: no significant weather observed at this time